createdAt,value
2019-04-10T00:01:01.543Z,1.1
2019-04-10T00:11:02.500Z,0.9
2019-04-10T00:17:01.314Z,0.8
2019-04-10T00:22:02.642Z,0.7
2019-04-10T00:27:02.031Z,0.5
2019-04-10T00:32:02.119Z,0.4
2019-04-10T00:37:01.744Z,0.3
2019-04-10T00:42:01.289Z,0.2
2019-04-10T00:47:02.352Z,0.1
2019-04-10T01:02:02.443Z,-0.1
2019-04-10T01:12:01.527Z,-0.2
2019-04-10T01:22:01.451Z,-0.3
2019-04-10T01:37:01.392Z,-0.4
2019-04-10T01:47:02.473Z,-0.5
2019-04-10T01:57:01.371Z,-0.6
2019-04-10T02:07:02.130Z,-0.7
2019-04-10T02:22:02.395Z,-0.7
2019-04-10T02:27:02.342Z,-0.8
2019-04-10T02:42:02.808Z,-0.8
2019-04-10T02:57:01.265Z,-0.8
2019-04-10T03:12:01.337Z,-0.8
2019-04-10T03:17:01.951Z,-0.9
2019-04-10T03:28:01.392Z,-1.0
2019-04-10T03:43:01.727Z,-1.0
2019-04-10T03:48:02.252Z,-1.1
2019-04-10T04:03:02.213Z,-1.1
2019-04-10T04:08:01.548Z,-1.2
2019-04-10T04:18:02.699Z,-1.3
2019-04-10T04:28:02.470Z,-1.4
2019-04-10T04:43:01.405Z,-1.3
2019-04-10T04:58:02.187Z,-1.2
2019-04-10T05:08:06.642Z,-1.1
2019-04-10T05:13:02.254Z,-1.0
2019-04-10T05:18:02.243Z,-0.9
2019-04-10T05:23:02.329Z,-0.8
2019-04-10T05:28:01.829Z,-0.6
2019-04-10T05:33:02.225Z,-0.5
2019-04-10T05:38:02.329Z,-0.2
2019-04-10T05:48:01.466Z,0.5
2019-04-10T05:53:02.446Z,0.8
2019-04-10T05:58:01.933Z,1.2
2019-04-10T06:03:01.444Z,1.5
2019-04-10T06:08:01.587Z,1.8
2019-04-10T06:13:02.522Z,2.0
2019-04-10T06:18:01.400Z,2.3
2019-04-10T06:23:01.556Z,2.5
2019-04-10T06:28:01.435Z,2.8
2019-04-10T06:33:02.451Z,3.0
2019-04-10T06:38:02.584Z,3.4
2019-04-10T06:43:01.428Z,3.6
2019-04-10T06:48:02.356Z,3.9
2019-04-10T06:53:01.443Z,4.1
2019-04-10T06:58:01.293Z,4.3
2019-04-10T07:03:01.447Z,4.5
2019-04-10T07:08:10.430Z,4.6
2019-04-10T07:13:04.211Z,4.7
2019-04-10T07:18:01.361Z,4.8
2019-04-10T07:23:01.449Z,4.9
2019-04-10T07:28:01.865Z,5.0
2019-04-10T07:33:01.537Z,5.1
2019-04-10T07:38:01.459Z,5.2
2019-04-10T07:43:02.103Z,5.4
2019-04-10T07:48:02.412Z,5.6
2019-04-10T07:53:01.938Z,5.7
2019-04-10T07:58:01.266Z,6.0
2019-04-10T08:03:01.435Z,6.2
2019-04-10T08:08:01.273Z,6.5
2019-04-10T08:13:02.363Z,6.7
2019-04-10T08:18:02.413Z,6.8
2019-04-10T08:28:02.645Z,6.7
2019-04-10T08:33:02.839Z,6.6
2019-04-10T08:43:02.051Z,6.7
2019-04-10T08:48:01.466Z,6.8
2019-04-10T08:53:02.073Z,7.0
2019-04-10T08:58:01.303Z,7.2
2019-04-10T09:03:02.387Z,7.3
2019-04-10T09:08:02.343Z,7.5
2019-04-10T09:13:01.336Z,7.7
2019-04-10T09:18:01.937Z,7.9
2019-04-10T09:23:18.520Z,8.0
2019-04-10T09:28:02.198Z,8.2
2019-04-10T09:38:02.109Z,8.4
2019-04-10T09:43:01.391Z,8.5
2019-04-10T09:48:01.276Z,8.7
2019-04-10T09:53:02.055Z,8.8
2019-04-10T10:08:02.209Z,8.4
2019-04-10T10:13:01.353Z,8.1
2019-04-10T10:18:01.340Z,7.7
2019-04-10T10:23:01.446Z,7.4
2019-04-10T10:28:01.317Z,7.1
2019-04-10T10:33:01.534Z,7.2
2019-04-10T10:38:01.314Z,7.3
2019-04-10T10:43:02.402Z,7.5
2019-04-10T10:48:01.383Z,7.6
2019-04-10T10:53:01.428Z,7.7
2019-04-10T10:58:01.673Z,7.9
2019-04-10T11:13:02.295Z,8.0
2019-04-10T11:18:01.994Z,8.3
2019-04-10T11:23:01.717Z,8.4
2019-04-10T11:39:11.800Z,8.5
2019-04-10T11:44:02.712Z,8.4
2019-04-10T11:54:03.935Z,8.6
2019-04-10T12:30:01.371Z,9.7
2019-04-10T12:40:01.384Z,9.3
2019-04-10T12:45:02.190Z,9.2
2019-04-10T12:50:01.086Z,9.0
2019-04-10T12:55:01.907Z,8.6
2019-04-10T13:00:05.067Z,8.3
2019-04-10T13:05:01.243Z,8.2
2019-04-10T13:10:02.444Z,8.1
2019-04-10T13:15:01.494Z,8.0
2019-04-10T13:25:01.777Z,7.9
2019-04-10T13:30:01.261Z,7.9
2019-04-10T13:40:01.704Z,7.8
2019-04-10T13:45:01.292Z,7.8
2019-04-10T13:50:02.342Z,7.7
2019-04-10T14:00:02.018Z,8.0
2019-04-10T14:05:01.193Z,8.3
2019-04-10T14:10:01.107Z,8.6
2019-04-10T14:15:01.894Z,8.9
2019-04-10T14:20:01.118Z,9.0
2019-04-10T14:30:01.334Z,8.8
2019-04-10T14:35:01.218Z,8.7
2019-04-10T14:40:02.100Z,8.5
2019-04-10T14:45:01.651Z,8.3
2019-04-10T14:50:01.927Z,8.2
2019-04-10T14:55:02.044Z,8.1
2019-04-10T15:00:01.591Z,8.3
2019-04-10T15:05:01.623Z,8.5
2019-04-10T15:10:01.117Z,8.7
2019-04-10T15:15:02.071Z,9.0
2019-04-10T15:25:01.516Z,8.7
2019-04-10T15:30:02.487Z,8.4
2019-04-10T15:35:02.180Z,8.2
2019-04-10T15:40:20.682Z,7.9
2019-04-10T15:45:01.276Z,7.7
2019-04-10T15:50:02.331Z,7.6
2019-04-10T15:55:01.849Z,7.4
2019-04-10T16:00:01.315Z,7.3
2019-04-10T16:05:01.664Z,7.2
2019-04-10T16:10:04.892Z,7.1
2019-04-10T16:15:03.065Z,7.1
2019-04-10T16:20:02.428Z,7.0
2019-04-10T16:25:01.527Z,6.9
2019-04-10T16:30:04.119Z,6.7
2019-04-10T16:35:01.309Z,6.6
2019-04-10T16:40:07.347Z,6.4
2019-04-10T16:45:02.069Z,6.4
2019-04-10T17:00:02.733Z,6.4
2019-04-10T17:10:19.328Z,6.3
2019-04-10T17:15:02.144Z,6.2
2019-04-10T17:20:02.583Z,5.9
2019-04-10T17:25:02.589Z,5.7
2019-04-10T17:30:01.622Z,5.5
2019-04-10T17:35:01.305Z,5.4
2019-04-10T17:40:02.463Z,5.2
2019-04-10T17:45:02.578Z,5.1
2019-04-10T17:50:01.308Z,4.9
2019-04-10T17:55:01.388Z,4.8
2019-04-10T18:00:01.405Z,4.7
2019-04-10T18:05:02.626Z,4.6
2019-04-10T18:10:02.709Z,4.5
2019-04-10T18:15:02.311Z,4.4
2019-04-10T18:20:01.320Z,4.3
2019-04-10T18:25:01.639Z,4.2
2019-04-10T18:30:01.606Z,4.1
2019-04-10T18:35:02.870Z,4.0
2019-04-10T18:40:01.340Z,3.9
2019-04-10T18:45:02.120Z,3.9
2019-04-10T18:50:04.140Z,3.8
2019-04-10T19:00:01.407Z,3.7
2019-04-10T19:10:02.468Z,3.6
2019-04-10T19:15:01.395Z,3.6
2019-04-10T19:30:01.217Z,3.6
2019-04-10T19:45:01.609Z,3.6
2019-04-10T19:50:01.478Z,3.7
2019-04-10T20:00:01.281Z,3.7
2019-04-10T20:05:01.334Z,3.6
2019-04-10T20:15:02.415Z,3.6
2019-04-10T20:30:01.617Z,3.6
2019-04-10T20:40:01.351Z,3.5
2019-04-10T20:45:01.354Z,3.5
2019-04-10T20:50:01.840Z,3.4
2019-04-10T20:55:01.518Z,3.3
2019-04-10T21:00:01.695Z,3.3
2019-04-10T21:05:06.179Z,3.2
2019-04-10T21:10:01.218Z,3.1
2019-04-10T21:15:01.454Z,3.1
2019-04-10T21:20:02.309Z,3.0
2019-04-10T21:25:01.290Z,2.9
2019-04-10T21:30:01.834Z,2.9
2019-04-10T21:40:02.600Z,2.8
2019-04-10T21:45:01.833Z,2.8
2019-04-10T22:00:01.570Z,2.8
2019-04-10T22:05:01.309Z,2.7
2019-04-10T22:15:01.462Z,2.7
2019-04-10T22:20:01.352Z,2.6
2019-04-10T22:25:01.318Z,2.5
2019-04-10T22:30:01.248Z,2.4
2019-04-10T22:35:01.373Z,2.3
2019-04-10T22:40:01.267Z,2.2
2019-04-10T22:45:02.538Z,2.2
2019-04-10T22:50:01.251Z,2.1
2019-04-10T23:00:01.452Z,2.0
2019-04-10T23:10:02.364Z,1.9
2019-04-10T23:15:01.434Z,1.9
2019-04-10T23:30:02.480Z,1.9
2019-04-10T23:40:01.442Z,1.8
2019-04-10T23:45:01.698Z,1.8
2019-04-10T23:50:01.867Z,1.6
2019-04-10T23:55:01.786Z,1.5
